createdAt,value
2019-03-23T00:00:16.718Z,101957.83
2019-03-23T00:02:46.283Z,101966.91
2019-03-23T00:05:16.382Z,101969.83
2019-03-23T00:07:45.939Z,101966.30
2019-03-23T00:10:15.611Z,101963.22
2019-03-23T00:12:45.319Z,101962.33
2019-03-23T00:15:15.113Z,101958.44
2019-03-23T00:17:44.821Z,101956.58
2019-03-23T00:20:14.526Z,101951.39
2019-03-23T00:22:44.092Z,101949.20
2019-03-23T00:25:13.746Z,101943.53
2019-03-23T00:27:43.352Z,101947.75
2019-03-23T00:30:14.540Z,101942.08
2019-03-23T00:32:44.203Z,101936.41
2019-03-23T00:35:14.090Z,101937.70
2019-03-23T00:37:43.660Z,101935.84
2019-03-23T00:40:13.378Z,101940.42
2019-03-23T00:42:42.942Z,101929.16
2019-03-23T00:45:12.634Z,101923.97
2019-03-23T00:47:42.248Z,101921.37
2019-03-23T00:50:12.208Z,101916.03
2019-03-23T00:52:41.761Z,101906.40
2019-03-23T00:55:11.423Z,101904.21
2019-03-23T00:57:40.986Z,101896.84
2019-03-23T01:00:13.255Z,101899.52
2019-03-23T01:02:43.338Z,101895.63
2019-03-23T01:05:12.961Z,101894.33
2019-03-23T01:07:42.564Z,101889.55
2019-03-23T01:10:13.853Z,101889.06
2019-03-23T01:12:43.469Z,101885.09
2019-03-23T01:15:14.221Z,101886.31
2019-03-23T01:17:43.805Z,101884.94
2019-03-23T01:20:14.464Z,101884.94
2019-03-23T01:22:44.028Z,101882.70
2019-03-23T01:25:14.001Z,101891.86
2019-03-23T01:27:43.558Z,101887.48
2019-03-23T01:30:15.620Z,101877.04
2019-03-23T01:32:45.419Z,101874.86
2019-03-23T01:35:15.056Z,101872.59
2019-03-23T01:37:44.610Z,101875.18
2019-03-23T01:40:14.511Z,101865.55
2019-03-23T01:42:44.141Z,101864.25
2019-03-23T01:45:15.221Z,101855.42
2019-03-23T01:47:44.889Z,101854.05
2019-03-23T01:50:14.644Z,101855.23
2019-03-23T01:52:44.287Z,101847.05
2019-03-23T01:55:14.011Z,101849.23
2019-03-23T01:57:43.581Z,101841.45
2019-03-23T02:00:14.685Z,101839.19
2019-03-23T02:02:44.576Z,101832.72
2019-03-23T02:05:14.370Z,101827.05
2019-03-23T02:07:43.924Z,101824.94
2019-03-23T02:10:14.063Z,101830.61
2019-03-23T02:12:43.624Z,101832.79
2019-03-23T02:15:15.106Z,101831.02
2019-03-23T02:17:45.180Z,101830.94
2019-03-23T02:20:15.546Z,101828.27
2019-03-23T02:22:45.181Z,101829.85
2019-03-23T02:25:15.235Z,101829.85
2019-03-23T02:27:44.786Z,101832.36
2019-03-23T02:30:14.970Z,101827.10
2019-03-23T02:32:44.552Z,101818.84
2019-03-23T02:35:14.253Z,101827.84
2019-03-23T02:37:44.167Z,101817.80
2019-03-23T02:40:13.936Z,101824.63
2019-03-23T02:42:43.550Z,101821.97
2019-03-23T02:45:14.163Z,101820.03
2019-03-23T02:47:43.729Z,101821.24
2019-03-23T02:50:13.427Z,101818.17
2019-03-23T02:52:43.042Z,101819.70
2019-03-23T02:55:14.018Z,101833.55
2019-03-23T02:57:43.949Z,101826.75
2019-03-23T03:00:15.883Z,101821.48
2019-03-23T03:02:46.197Z,101824.28
2019-03-23T03:05:15.929Z,101827.99
2019-03-23T03:07:45.491Z,101825.67
2019-03-23T03:10:38.188Z,101817.98
2019-03-23T03:13:08.709Z,101818.54
2019-03-23T03:15:38.253Z,101820.36
2019-03-23T03:18:08.645Z,101816.48
2019-03-23T03:20:38.206Z,101813.48
2019-03-23T03:23:07.758Z,101813.40
2019-03-23T03:25:37.342Z,101808.98
2019-03-23T03:28:07.038Z,101817.98
2019-03-23T03:30:36.685Z,101818.38
2019-03-23T03:33:06.405Z,101823.48
2019-03-23T03:35:35.975Z,101818.79
2019-03-23T03:38:05.877Z,101821.78
2019-03-23T03:40:35.631Z,101814.79
2019-03-23T03:43:05.191Z,101817.30
2019-03-23T03:45:34.850Z,101821.03
2019-03-23T03:48:04.485Z,101818.28
2019-03-23T03:50:34.047Z,101822.45
2019-03-23T03:53:03.623Z,101812.34
2019-03-23T03:55:33.187Z,101814.77
2019-03-23T03:58:02.770Z,101808.21
2019-03-23T04:00:32.324Z,101805.06
2019-03-23T04:03:01.921Z,101804.57
2019-03-23T04:05:31.513Z,101805.87
2019-03-23T04:08:11.255Z,101801.09
2019-03-23T04:10:32.464Z,101798.91
2019-03-23T04:13:02.028Z,101800.64
2019-03-23T04:15:31.651Z,101802.75
2019-03-23T04:18:01.272Z,101793.60
2019-03-23T04:20:30.883Z,101792.23
2019-03-23T04:23:00.572Z,101795.14
2019-03-23T04:25:30.129Z,101795.06
2019-03-23T04:27:59.694Z,101797.17
2019-03-23T04:30:29.319Z,101794.98
2019-03-23T04:32:58.863Z,101801.30
2019-03-23T04:35:29.765Z,101797.81
2019-03-23T04:37:59.326Z,101788.63
2019-03-23T04:40:28.887Z,101796.72
2019-03-23T04:42:58.480Z,101799.15
2019-03-23T04:45:28.046Z,101801.25
2019-03-23T04:47:58.063Z,101790.33
2019-03-23T04:50:27.626Z,101789.44
2019-03-23T04:52:57.187Z,101793.65
2019-03-23T04:55:26.780Z,101788.47
2019-03-23T04:57:56.349Z,101785.75
2019-03-23T05:00:25.930Z,101787.45
2019-03-23T05:02:55.510Z,101789.07
2019-03-23T05:05:25.095Z,101796.27
2019-03-23T05:07:54.734Z,101786.08
2019-03-23T05:10:24.311Z,101785.59
2019-03-23T05:12:53.914Z,101776.40
2019-03-23T05:15:23.541Z,101783.28
2019-03-23T05:17:53.121Z,101775.02
2019-03-23T05:20:31.237Z,101779.80
2019-03-23T05:23:00.883Z,101773.65
2019-03-23T05:25:31.225Z,101779.72
2019-03-23T05:28:00.790Z,101768.55
2019-03-23T05:30:30.352Z,101766.98
2019-03-23T05:33:00.012Z,101763.27
2019-03-23T05:35:29.583Z,101769.89
2019-03-23T05:37:59.163Z,101767.88
2019-03-23T05:40:28.730Z,101768.56
2019-03-23T05:42:58.311Z,101762.01
2019-03-23T05:45:27.888Z,101767.15
2019-03-23T05:47:57.444Z,101764.55
2019-03-23T05:50:27.212Z,101766.03
2019-03-23T05:52:56.757Z,101765.08
2019-03-23T05:55:26.317Z,101760.00
2019-03-23T05:57:55.985Z,101772.24
2019-03-23T06:00:25.553Z,101769.84
2019-03-23T06:02:55.202Z,101769.09
2019-03-23T06:05:24.869Z,101767.02
2019-03-23T06:07:54.418Z,101760.69
2019-03-23T06:10:24.061Z,101761.97
2019-03-23T06:12:53.637Z,101755.39
2019-03-23T06:15:23.582Z,101760.44
2019-03-23T06:17:53.153Z,101751.70
2019-03-23T06:20:22.695Z,101752.66
2019-03-23T06:22:52.268Z,101761.53
2019-03-23T06:25:21.912Z,101757.99
2019-03-23T06:27:51.951Z,101756.75
2019-03-23T06:30:21.508Z,101756.97
2019-03-23T06:32:51.068Z,101751.22
2019-03-23T06:35:20.660Z,101759.13
2019-03-23T06:37:50.217Z,101762.77
2019-03-23T06:40:19.910Z,101764.73
2019-03-23T06:42:59.284Z,101758.15
2019-03-23T06:45:20.760Z,101750.49
2019-03-23T06:47:50.343Z,101755.41
2019-03-23T06:50:19.905Z,101753.06
2019-03-23T06:52:49.699Z,101754.16
2019-03-23T06:55:19.295Z,101754.33
2019-03-23T06:57:48.922Z,101749.97
2019-03-23T07:00:18.877Z,101748.20
2019-03-23T07:02:48.757Z,101743.66
2019-03-23T07:05:18.341Z,101745.75
2019-03-23T07:07:47.909Z,101750.16
2019-03-23T07:10:17.805Z,101738.08
2019-03-23T07:12:47.449Z,101739.28
2019-03-23T07:15:20.345Z,101742.83
2019-03-23T07:17:48.553Z,101732.91
2019-03-23T07:20:18.356Z,101730.23
2019-03-23T07:22:47.992Z,101737.30
2019-03-23T07:25:17.638Z,101731.05
2019-03-23T07:27:47.200Z,101736.67
2019-03-23T07:30:18.436Z,101736.98
2019-03-23T07:32:48.072Z,101748.47
2019-03-23T07:35:17.780Z,101743.22
2019-03-23T07:37:47.424Z,101742.63
2019-03-23T07:40:17.323Z,101747.49
2019-03-23T07:42:46.922Z,101748.45
2019-03-23T07:45:17.389Z,101756.38
2019-03-23T07:47:47.020Z,101755.40
2019-03-23T07:50:17.447Z,101753.20
2019-03-23T07:52:47.095Z,101758.67
2019-03-23T07:55:17.844Z,101748.67
2019-03-23T07:57:47.394Z,101755.41
2019-03-23T08:00:22.286Z,101751.91
2019-03-23T08:02:52.065Z,101749.85
2019-03-23T08:05:21.670Z,101752.18
2019-03-23T08:07:51.260Z,101748.47
2019-03-23T08:10:34.233Z,101751.14
2019-03-23T08:13:04.246Z,101749.39
2019-03-23T08:15:33.967Z,101741.36
2019-03-23T08:18:03.547Z,101739.30
2019-03-23T08:20:33.139Z,101744.20
2019-03-23T08:23:02.791Z,101745.59
2019-03-23T08:25:32.609Z,101746.37
2019-03-23T08:28:02.179Z,101741.14
2019-03-23T08:30:31.812Z,101740.47
2019-03-23T08:33:01.392Z,101727.02
2019-03-23T08:35:31.027Z,101734.46
2019-03-23T08:38:00.617Z,101736.60
2019-03-23T08:40:30.743Z,101738.33
2019-03-23T08:43:00.316Z,101737.54
2019-03-23T08:45:29.877Z,101734.72
2019-03-23T08:47:59.434Z,101731.79
2019-03-23T08:50:29.042Z,101725.48
2019-03-23T08:52:58.607Z,101724.80
2019-03-23T08:55:28.239Z,101726.55
2019-03-23T08:57:57.830Z,101718.91
2019-03-23T09:00:27.397Z,101716.10
2019-03-23T09:02:57.068Z,101719.88
2019-03-23T09:05:26.710Z,101726.23
2019-03-23T09:07:56.630Z,101719.68
2019-03-23T09:10:26.194Z,101730.09
2019-03-23T09:12:55.746Z,101728.23
2019-03-23T09:15:25.346Z,101731.80
2019-03-23T09:17:54.976Z,101723.63
2019-03-23T09:20:24.702Z,101724.49
2019-03-23T09:22:54.275Z,101724.66
2019-03-23T09:25:23.841Z,101723.34
2019-03-23T09:27:53.413Z,101725.55
2019-03-23T09:30:22.995Z,101731.11
2019-03-23T09:32:52.599Z,101725.91
2019-03-23T09:35:22.168Z,101724.78
2019-03-23T09:37:51.731Z,101731.45
2019-03-23T09:40:21.893Z,101733.12
2019-03-23T09:42:51.469Z,101739.38
2019-03-23T09:45:21.145Z,101738.41
2019-03-23T09:47:50.705Z,101745.17
2019-03-23T09:50:20.356Z,101749.89
2019-03-23T09:52:50.293Z,101746.95
2019-03-23T09:55:19.899Z,101754.83
2019-03-23T09:57:49.438Z,101749.60
2019-03-23T10:00:19.043Z,101747.12
2019-03-23T10:02:48.619Z,101745.04
2019-03-23T10:05:18.181Z,101747.91
2019-03-23T10:07:47.791Z,101755.66
2019-03-23T10:10:21.854Z,101749.59
2019-03-23T10:12:48.643Z,101750.47
2019-03-23T10:15:18.230Z,101759.63
2019-03-23T10:17:47.786Z,101754.81
2019-03-23T10:20:17.363Z,101740.80
2019-03-23T10:22:47.332Z,101754.19
2019-03-23T10:25:16.886Z,101752.04
2019-03-23T10:27:46.444Z,101758.70
2019-03-23T10:30:16.284Z,101747.99
2019-03-23T10:32:45.912Z,101745.84
2019-03-23T10:35:15.479Z,101745.59
2019-03-23T10:37:45.088Z,101737.63
2019-03-23T10:40:15.094Z,101746.34
2019-03-23T10:42:44.716Z,101741.68
2019-03-23T10:45:14.820Z,101744.42
2019-03-23T10:47:44.475Z,101741.91
2019-03-23T10:50:14.188Z,101743.31
2019-03-23T10:52:43.798Z,101736.87
2019-03-23T10:55:13.412Z,101747.64
2019-03-23T10:57:43.445Z,101755.05
2019-03-23T11:00:16.016Z,101752.20
2019-03-23T11:02:45.601Z,101755.55
2019-03-23T11:05:15.273Z,101753.82
2019-03-23T11:07:44.882Z,101745.73
2019-03-23T11:10:15.079Z,101742.31
2019-03-23T11:12:44.651Z,101744.14
2019-03-23T11:15:14.520Z,101755.45
2019-03-23T11:17:44.095Z,101753.50
2019-03-23T11:20:14.399Z,101763.31
2019-03-23T11:22:44.164Z,101762.93
2019-03-23T11:25:14.170Z,101759.44
2019-03-23T11:27:43.743Z,101761.18
2019-03-23T11:30:16.467Z,101753.48
2019-03-23T11:32:46.206Z,101752.52
2019-03-23T11:35:15.848Z,101755.07
